Time;durP1;ratioP1;P1;durP2;ratioP2;P2;SDS_P1;SDS_P2;PMS_P1;PMS_P2;Temp;Humidity;BMP_temperature;BMP_pressure;BME280_temperature;BME280_humidity;BME280_pressure;Samples;Min_cycle;Max_cycle;Signal;HPM_P1;HPM_P2
2022/08/04 00:01:27;;;;;;;18.23;9.05;;;;;;;19.81;100.00;101351.56;6139492;23;20026;-76
2022/08/04 00:04:02;;;;;;;21.42;10.07;;;;;;;19.79;100.00;101351.63;6114651;23;20033;-75
2022/08/04 00:06:47;;;;;;;26.00;11.30;;;;;;;19.78;100.00;101349.00;6150098;23;20021;-76
2022/08/04 00:09:40;;;;;;;22.35;11.65;;;;;;;19.77;100.00;101340.09;6134744;23;20328;-75
2022/08/04 00:12:14;;;;;;;19.15;10.65;;;;;;;19.78;100.00;101333.81;6131929;23;20034;-75
2022/08/04 00:14:49;;;;;;;19.27;11.57;;;;;;;19.77;100.00;101333.84;6153335;23;20021;-75
2022/08/04 00:17:20;;;;;;;20.70;10.90;;;;;;;19.77;100.00;101331.19;6151724;23;20351;-76
2022/08/04 00:19:54;;;;;;;20.42;11.57;;;;;;;19.75;100.00;101333.03;6149480;23;20355;-76
2022/08/04 00:22:29;;;;;;;26.40;11.43;;;;;;;19.74;100.00;101333.97;6151366;23;20017;-76
2022/08/04 00:25:01;;;;;;;18.95;11.73;;;;;;;19.73;100.00;101338.41;6102913;23;20302;-76
2022/08/04 00:27:31;;;;;;;22.58;12.30;;;;;;;19.72;100.00;101336.69;6150969;23;20025;-75
2022/08/04 00:30:05;;;;;;;28.83;12.63;;;;;;;19.71;100.00;101329.53;6148036;23;20032;-76
2022/08/04 00:32:34;;;;;;;21.13;11.05;;;;;;;19.71;100.00;101331.31;6154837;23;20014;-75
2022/08/04 00:35:03;;;;;;;22.65;12.35;;;;;;;19.70;100.00;101333.13;6115145;23;20135;-75
2022/08/04 00:37:32;;;;;;;26.17;13.10;;;;;;;19.70;100.00;101326.88;6119906;23;20333;-76
2022/08/04 00:40:08;;;;;;;29.55;13.07;;;;;;;19.67;100.00;101330.53;6111102;23;20451;-76
2022/08/04 00:42:48;;;;;;;21.38;12.20;;;;;;;19.65;100.00;101325.22;6106711;23;20022;-75
2022/08/04 00:45:51;;;;;;;18.58;11.27;;;;;;;19.64;100.00;101327.94;6152343;23;20029;-76
2022/08/04 00:49:13;;;;;;;25.00;11.52;;;;;;;19.62;100.00;101330.66;6145336;23;20314;-75
2022/08/04 00:51:53;;;;;;;27.63;12.25;;;;;;;19.61;100.00;101328.03;6119335;23;20021;-75
2022/08/04 00:54:44;;;;;;;21.55;12.98;;;;;;;19.61;100.00;101323.56;6100227;23;20211;-75
2022/08/04 00:57:38;;;;;;;30.80;13.13;;;;;;;19.59;100.00;101321.84;6156618;23;20024;-75
2022/08/04 01:00:13;;;;;;;31.80;12.73;;;;;;;19.59;100.00;101324.53;6126170;23;20013;-76
2022/08/04 01:03:13;;;;;;;28.65;13.27;;;;;;;19.58;100.00;101320.09;6127434;23;20246;-77
2022/08/04 01:06:11;;;;;;;25.25;13.15;;;;;;;19.58;100.00;101326.28;6138452;23;20028;-77
2022/08/04 01:08:49;;;;;;;33.85;12.02;;;;;;;19.57;100.00;101329.03;6153057;23;20546;-77
2022/08/04 01:11:45;;;;;;;25.00;12.35;;;;;;;19.58;100.00;101325.44;6138548;23;20340;-77
2022/08/04 01:14:31;;;;;;;25.35;13.48;;;;;;;19.58;100.00;101315.59;6113985;23;20025;-77
2022/08/04 01:17:18;;;;;;;31.92;13.70;;;;;;;19.58;100.00;101317.41;6121155;23;20025;-77
2022/08/04 01:20:07;;;;;;;25.40;12.55;;;;;;;19.58;100.00;101317.41;6153041;23;20379;-77
2022/08/04 01:23:00;;;;;;;23.58;12.55;;;;;;;19.57;100.00;101315.66;6146997;23;20024;-77
2022/08/04 01:26:06;;;;;;;26.77;12.57;;;;;;;19.57;100.00;101307.66;6140372;23;20044;-77
2022/08/04 01:29:08;;;;;;;21.92;12.65;;;;;;;19.56;100.00;101304.06;6129513;23;20496;-77
2022/08/04 01:31:58;;;;;;;27.67;13.25;;;;;;;19.56;100.00;101305.88;6143117;23;20366;-77
2022/08/04 01:34:33;;;;;;;36.22;15.05;;;;;;;19.57;100.00;101302.31;6149495;23;20021;-77
2022/08/04 01:37:06;;;;;;;27.05;12.50;;;;;;;19.57;100.00;101296.97;6152926;23;20347;-77
2022/08/04 01:39:41;;;;;;;20.95;11.85;;;;;;;19.56;100.00;101301.41;6152766;23;20306;-77
2022/08/04 01:42:11;;;;;;;22.73;11.70;;;;;;;19.55;100.00;101302.34;6136850;23;20017;-77
2022/08/04 01:44:40;;;;;;;24.98;13.00;;;;;;;19.55;100.00;101297.00;6143618;23;20055;-77
2022/08/04 01:47:09;;;;;;;26.50;13.27;;;;;;;19.55;100.00;101301.47;6151564;23;20351;-77
2022/08/04 01:49:38;;;;;;;28.52;13.63;;;;;;;19.53;100.00;101305.94;6095438;23;20586;-77
2022/08/04 01:52:09;;;;;;;25.35;12.85;;;;;;;19.52;100.00;101301.53;6155377;23;20507;-78
2022/08/04 01:54:40;;;;;;;29.38;13.65;;;;;;;19.51;100.00;101305.13;6151643;23;20036;-77
2022/08/04 01:57:10;;;;;;;31.65;12.77;;;;;;;19.50;100.00;101300.72;6133392;23;20028;-77
2022/08/04 02:00:01;;;;;;;32.03;13.77;;;;;;;19.50;100.00;101298.91;6123458;23;20045;-77
2022/08/04 02:02:32;;;;;;;29.65;13.27;;;;;;;19.50;100.00;101300.72;6145803;23;20578;-77
2022/08/04 02:05:02;;;;;;;23.48;12.00;;;;;;;19.51;100.00;101294.44;6156455;23;20028;-77
2022/08/04 02:07:56;;;;;;;28.38;12.38;;;;;;;19.50;100.00;101298.03;6127477;23;20639;-77
2022/08/04 02:10:34;;;;;;;24.48;12.98;;;;;;;19.50;100.00;101293.56;6144829;23;20010;-77
2022/08/04 02:13:18;;;;;;;22.17;12.30;;;;;;;19.50;100.00;101293.56;6136830;23;20017;-77
2022/08/04 02:15:46;;;;;;;22.27;12.05;;;;;;;19.50;100.00;101287.34;6154344;23;20025;-77
2022/08/04 02:18:23;;;;;;;24.27;11.95;;;;;;;19.50;100.00;101290.88;6147014;23;20021;-77
2022/08/04 02:21:02;;;;;;;22.38;12.02;;;;;;;19.48;100.00;101290.06;6155157;23;20021;-77
2022/08/04 02:23:42;;;;;;;25.50;13.05;;;;;;;19.49;100.00;101286.47;6145911;23;20025;-77
2022/08/04 02:26:17;;;;;;;23.95;12.70;;;;;;;19.48;100.00;101296.25;6152304;23;20025;-77
2022/08/04 02:29:08;;;;;;;25.67;13.03;;;;;;;19.46;100.00;101287.41;6115123;23;20029;-77
2022/08/04 02:31:46;;;;;;;19.60;12.00;;;;;;;19.46;100.00;101287.41;6150199;23;20030;-77
2022/08/04 02:34:33;;;;;;;27.10;12.85;;;;;;;19.46;100.00;101286.53;6152405;23;20017;-78
2022/08/04 02:37:03;;;;;;;27.50;12.90;;;;;;;19.45;100.00;101284.78;6153209;23;20028;-77
2022/08/04 02:39:36;;;;;;;26.30;13.02;;;;;;;19.45;100.00;101282.09;6122843;23;20020;-78
2022/08/04 02:42:17;;;;;;;27.90;12.65;;;;;;;19.44;100.00;101278.56;6125496;23;20051;-77
2022/08/04 02:44:49;;;;;;;28.02;11.98;;;;;;;19.44;100.00;101275.88;6138662;23;20024;-77
2022/08/04 02:47:20;;;;;;;26.63;13.45;;;;;;;19.45;100.00;101284.78;6148464;23;20021;-77
2022/08/04 02:49:50;;;;;;;30.27;12.80;;;;;;;19.45;100.00;101283.00;6156848;23;20025;-76
2022/08/04 02:52:20;;;;;;;31.13;12.82;;;;;;;19.45;100.00;101276.75;6127666;23;20017;-76
2022/08/04 02:54:53;;;;;;;30.70;13.15;;;;;;;19.45;100.00;101277.66;6132735;23;20013;-76
2022/08/04 02:57:28;;;;;;;23.63;12.23;;;;;;;19.44;100.00;101278.56;6149345;23;20024;-76
2022/08/04 03:00:13;;;;;;;23.02;11.07;;;;;;;19.45;100.00;101276.75;6139154;23;20009;-76
2022/08/04 03:03:18;;;;;;;27.45;13.02;;;;;;;19.45;100.00;101274.09;6150185;23;20025;-76
2022/08/04 03:05:53;;;;;;;24.98;12.52;;;;;;;19.44;100.00;101272.34;6157778;23;20025;-76
2022/08/04 03:08:55;;;;;;;24.23;12.40;;;;;;;19.42;100.00;101268.84;6153358;23;20159;-76
2022/08/04 03:11:50;;;;;;;24.63;12.15;;;;;;;19.41;100.00;101267.97;6112356;23;20243;-76
2022/08/04 03:14:18;;;;;;;28.83;12.75;;;;;;;19.40;100.00;101260.00;6152090;23;20018;-76
2022/08/04 03:16:46;;;;;;;24.45;11.65;;;;;;;19.38;100.00;101254.69;6138301;23;20021;-76
2022/08/04 03:19:45;;;;;;;26.63;13.40;;;;;;;19.38;100.00;101254.69;6124945;23;20002;-76
2022/08/04 03:22:32;;;;;;;23.42;12.25;;;;;;;19.37;100.00;101257.41;6154395;23;20017;-76
2022/08/04 03:25:12;;;;;;;25.40;12.25;;;;;;;19.35;100.00;101256.56;6156697;23;20028;-76
2022/08/04 03:27:56;;;;;;;24.70;12.75;;;;;;;19.33;100.00;101251.25;6125984;23;20243;-76
2022/08/04 03:31:02;;;;;;;26.15;13.68;;;;;;;19.33;100.00;101251.25;6098196;23;20222;-77
2022/08/04 03:34:00;;;;;;;30.45;12.80;;;;;;;19.31;100.00;101246.88;6114051;23;20029;-77
2022/08/04 03:36:54;;;;;;;23.98;12.98;;;;;;;19.27;100.00;101233.59;6153645;23;20021;-76
2022/08/04 03:39:41;;;;;;;30.60;14.77;;;;;;;19.27;100.00;101246.09;6150998;23;20637;-76
2022/08/04 03:42:18;;;;;;;25.02;13.50;;;;;;;19.24;100.00;101243.47;6148327;23;20236;-76
2022/08/04 03:45:02;;;;;;;20.45;12.02;;;;;;;19.23;100.00;101236.41;6120754;23;20026;-76
2022/08/04 03:48:27;;;;;;;27.88;13.60;;;;;;;19.22;100.00;101234.63;6148469;23;20029;-76
2022/08/04 03:54:59;;;;;;;21.00;11.48;;;;;;;19.24;100.00;101238.13;6095240;23;20025;-76
2022/08/04 03:57:33;;;;;;;28.73;13.45;;;;;;;19.25;100.00;101238.09;6114710;23;20713;-76
2022/08/04 04:00:11;;;;;;;25.35;12.35;;;;;;;19.27;100.00;101232.72;6155109;23;20025;-77
2022/08/04 04:03:21;;;;;;;23.08;12.52;;;;;;;19.29;100.00;101234.41;6134455;23;20228;-76
2022/08/04 04:06:41;;;;;;;24.98;12.13;;;;;;;19.32;100.00;101230.81;6153097;23;20021;-76
2022/08/04 04:09:26;;;;;;;26.08;11.38;;;;;;;19.36;100.00;101223.59;6152134;23;20025;-76
2022/08/04 04:12:24;;;;;;;24.35;12.07;;;;;;;19.39;100.00;101221.69;6154466;23;20419;-76
2022/08/04 04:15:07;;;;;;;24.52;12.32;;;;;;;19.42;100.00;101221.59;6127549;23;20688;-76
2022/08/04 04:18:03;;;;;;;27.65;12.60;;;;;;;19.45;100.00;101215.28;6110528;23;20430;-77
2022/08/04 04:21:02;;;;;;;28.40;12.32;;;;;;;19.48;100.00;101216.09;6149196;23;20422;-76
2022/08/04 04:23:43;;;;;;;22.65;12.90;;;;;;;19.51;100.00;101212.47;6128597;23;20025;-76
2022/08/04 04:26:22;;;;;;;19.80;10.85;;;;;;;19.56;100.00;101220.34;6152915;23;20025;-77
2022/08/04 04:29:01;;;;;;;21.42;10.52;;;;;;;19.59;100.00;101220.28;6152098;23;20328;-76
2022/08/04 04:31:42;;;;;;;20.25;10.63;;;;;;;19.61;100.00;101216.63;6151764;23;20139;-77
2022/08/04 04:34:34;;;;;;;22.35;10.80;;;;;;;19.65;100.00;101220.09;6135305;23;20030;-77
2022/08/04 04:37:20;;;;;;;20.65;10.65;;;;;;;19.69;100.00;101224.41;6151563;23;20021;-76
2022/08/04 04:40:02;;;;;;;21.23;12.23;;;;;;;19.72;100.00;101215.47;6155239;23;20025;-77
2022/08/04 04:42:51;;;;;;;26.75;11.93;;;;;;;19.76;100.00;101215.34;6126858;23;20325;-76
2022/08/04 04:45:50;;;;;;;19.08;10.50;;;;;;;19.83;100.00;101213.38;6146774;23;20344;-76
2022/08/04 04:48:37;;;;;;;18.15;10.30;;;;;;;19.89;100.00;101215.88;6150398;23;20025;-76
2022/08/04 04:51:15;;;;;;;19.80;11.27;;;;;;;20.00;100.00;101218.19;6135760;23;20348;-76
2022/08/04 04:53:57;;;;;;;19.45;10.10;;;;;;;20.20;100.00;101197.06;6150431;23;20032;-76
2022/08/04 04:56:34;;;;;;;18.83;11.27;;;;;;;20.60;100.00;101208.31;6144481;23;20048;-76
2022/08/04 04:59:08;;;;;;;16.40;10.30;;;;;;;20.87;100.00;101208.31;6152208;23;20351;-76
2022/08/04 05:01:58;;;;;;;24.58;10.77;;;;;;;21.07;100.00;101213.00;6152673;23;20021;-76
2022/08/04 05:04:51;;;;;;;19.50;9.65;;;;;;;21.31;100.00;101205.91;6131663;23;20529;-76
2022/08/04 05:07:35;;;;;;;14.27;8.35;;;;;;;21.89;100.00;101210.94;6133785;23;20018;-76
2022/08/04 05:10:21;;;;;;;15.65;8.48;;;;;;;22.58;100.00;101214.47;6152267;23;20028;-76
2022/08/04 05:13:04;;;;;;;22.35;8.82;;;;;;;23.15;100.00;101209.41;6156208;23;20025;-76
2022/08/04 05:15:58;;;;;;;24.80;8.88;;;;;;;23.79;100.00;101218.25;6129298;23;20025;-76
2022/08/04 05:18:31;;;;;;;20.70;7.75;;;;;;;24.19;100.00;101212.81;6124757;23;20218;-76
2022/08/04 05:21:32;;;;;;;19.60;8.10;;;;;;;24.44;100.00;101221.47;6135479;23;20029;-76
2022/08/04 05:24:06;;;;;;;33.75;8.38;;;;;;;24.56;100.00;101214.63;6125065;23;20025;-76
2022/08/04 05:26:44;;;;;;;15.60;8.70;;;;;;;24.81;100.00;101221.47;6148032;23;20028;-76
2022/08/04 05:29:24;;;;;;;22.88;9.20;;;;;;;25.05;100.00;101211.28;6150305;23;20025;-74
2022/08/04 05:32:01;;;;;;;18.92;8.05;;;;;;;25.12;100.00;101215.38;6155872;23;20344;-78
2022/08/04 05:34:39;;;;;;;16.67;7.97;;;;;;;25.10;100.00;101210.09;6143113;23;20074;-76
2022/08/04 05:37:14;;;;;;;16.63;8.73;;;;;;;25.15;100.00;101204.44;6124432;23;20444;-76
2022/08/04 05:40:04;;;;;;;16.73;7.72;;;;;;;25.21;100.00;101203.25;6131754;23;20025;-78
2022/08/04 05:42:37;;;;;;;16.88;8.15;;;;;;;25.14;100.00;101202.72;6141222;23;20068;-78
2022/08/04 05:45:07;;;;;;;17.88;7.15;;;;;;;25.01;100.00;101202.47;6147672;23;20163;-78
2022/08/04 05:47:36;;;;;;;;;;;;;;;24.89;100.00;101208.47;6156210;23;20017;-76
2022/08/04 05:50:06;;;;;;;22.13;7.88;;;;;;;24.93;100.00;101211.88;6142763;23;19947;-79
2022/08/04 05:52:37;;;;;;;19.60;7.60;;;;;;;24.94;100.00;101208.25;6135258;23;20447;-78
2022/08/04 05:55:07;;;;;;;19.42;9.20;;;;;;;24.96;100.00;101207.22;6136388;23;20386;-79
2022/08/04 05:57:41;;;;;;;20.23;8.43;;;;;;;25.12;100.00;101199.19;6153951;23;20021;-79
2022/08/04 06:00:10;;;;;;;18.83;9.90;;;;;;;25.45;100.00;101195.72;6147647;23;20128;-78
2022/08/04 06:03:03;;;;;;;25.73;8.40;;;;;;;25.75;100.00;101203.09;6121661;23;20196;-78
2022/08/04 06:05:31;;;;;;;15.07;8.50;;;;;;;25.74;100.00;101209.44;6132621;23;20021;-78
2022/08/04 06:08:00;;;;;;;19.45;8.80;;;;;;;25.66;100.00;101216.13;6128928;23;20247;-78
2022/08/04 06:10:41;;;;;;;;;;;;;;;25.50;100.00;101220.63;6125055;23;20475;-78
2022/08/04 06:13:13;;;;;;;15.25;8.80;;;;;;;25.29;100.00;101220.81;6154287;23;19951;-78
2022/08/04 06:16:05;;;;;;;17.90;10.00;;;;;;;25.03;100.00;101218.56;6137969;23;20025;-77
2022/08/04 06:18:35;;;;;;;14.80;8.43;;;;;;;24.80;100.00;101226.00;6143846;23;20025;-78
2022/08/04 06:21:27;;;;;;;15.32;8.60;;;;;;;24.68;100.00;101221.22;6156320;23;20022;-78
2022/08/04 06:23:57;;;;;;;18.88;9.10;;;;;;;24.60;100.00;101220.72;6125017;23;20242;-78
2022/08/04 06:26:34;;;;;;;17.48;9.32;;;;;;;24.52;100.00;101224.69;6147035;23;20021;-78
2022/08/04 06:29:04;;;;;;;20.42;8.98;;;;;;;24.45;100.00;101225.88;6158350;23;20021;-78
2022/08/04 06:31:45;;;;;;;18.10;8.93;;;;;;;24.38;100.00;101216.34;6116653;23;20029;-78
2022/08/04 06:34:34;;;;;;;21.70;9.32;;;;;;;24.32;100.00;101213.97;6143865;23;20036;-78
2022/08/04 06:37:04;;;;;;;22.42;8.88;;;;;;;24.31;100.00;101212.25;6131070;23;20028;-78
2022/08/04 06:39:34;;;;;;;20.60;8.93;;;;;;;24.30;100.00;101216.72;6135265;23;20026;-78
2022/08/04 06:42:10;;;;;;;13.95;7.45;;;;;;;24.32;100.00;101225.59;6119470;23;20028;-77
2022/08/04 06:44:57;;;;;;;18.45;10.23;;;;;;;24.37;100.00;101230.78;6126806;23;20017;-78
2022/08/04 06:47:29;;;;;;;17.73;7.70;;;;;;;24.38;100.00;101235.22;6111685;23;20024;-78
2022/08/04 06:49:59;;;;;;;15.07;7.93;;;;;;;24.30;100.00;101235.56;6097004;23;20687;-78
2022/08/04 06:52:47;;;;;;;20.45;8.65;;;;;;;24.22;100.00;101237.78;6131781;23;20283;-78
2022/08/04 06:55:16;;;;;;;13.13;6.97;;;;;;;24.21;100.00;101235.16;6088939;23;20043;-78
2022/08/04 06:57:45;;;;;;;16.70;5.93;;;;;;;24.21;100.00;101236.03;6097725;23;20029;-78
2022/08/04 07:00:16;;;;;;;16.85;7.05;;;;;;;24.20;100.00;101236.97;6153098;23;20032;-77
2022/08/04 07:02:50;;;;;;;15.65;6.50;;;;;;;24.17;100.00;101238.94;6143097;23;20028;-78
2022/08/04 07:05:19;;;;;;;11.32;5.40;;;;;;;24.16;100.00;101230.00;6152737;23;20025;-78
2022/08/04 07:07:48;;;;;;;16.40;7.05;;;;;;;24.19;100.00;101219.06;6149017;23;20381;-78
2022/08/04 07:10:29;;;;;;;17.40;5.50;;;;;;;24.23;100.00;101222.50;6113544;23;20017;-77
2022/08/04 07:13:00;;;;;;;14.00;5.75;;;;;;;24.28;100.00;101213.25;6140277;23;20173;-77
2022/08/04 07:15:30;;;;;;;13.02;5.47;;;;;;;24.35;100.00;101211.13;6103454;23;20033;-78
2022/08/04 07:18:03;;;;;;;12.73;5.13;;;;;;;24.43;100.00;101206.25;6113494;23;20442;-78
2022/08/04 07:20:33;;;;;;;14.50;5.38;;;;;;;24.52;100.00;101208.50;6139318;23;20024;-78
2022/08/04 07:23:05;;;;;;;10.77;4.93;;;;;;;24.61;100.00;101225.16;6156570;23;20076;-78
2022/08/04 07:25:38;;;;;;;12.23;4.68;;;;;;;24.65;100.00;101210.59;6090987;23;20474;-78
2022/08/04 07:28:28;;;;;;;10.02;5.25;;;;;;;24.67;100.00;101211.41;6114720;23;20022;-78
2022/08/04 07:31:00;;;;;;;11.35;4.85;;;;;;;24.69;100.00;101212.19;6149248;23;20025;-78
2022/08/04 07:33:30;;;;;;;9.88;4.70;;;;;;;24.78;100.00;101211.72;6147898;23;20344;-79
2022/08/04 07:36:01;;;;;;;12.13;3.90;;;;;;;24.96;100.00;101215.31;6153613;23;20641;-79
2022/08/04 07:38:40;;;;;;;10.27;4.57;;;;;;;25.12;100.00;101212.66;6131090;23;20021;-79
2022/08/04 07:41:19;;;;;;;;;;;;;;;25.25;100.00;101212.94;6148276;23;20583;-79
2022/08/04 07:44:05;;;;;;;10.57;4.25;;;;;;;25.38;100.00;101216.72;6148773;23;19917;-79
2022/08/04 07:46:35;;;;;;;11.27;4.07;;;;;;;25.48;100.00;101209.00;6150401;23;20022;-79
2022/08/04 07:49:04;;;;;;;;;;;;;;;25.58;100.00;101209.41;6125635;23;20025;-79
2022/08/04 07:51:34;;;;;;;9.20;4.13;;;;;;;25.62;100.00;101209.16;6147648;23;20270;-79
2022/08/04 07:54:04;;;;;;;7.40;3.97;;;;;;;25.67;100.00;101206.19;6152255;23;20351;-79
2022/08/04 07:56:36;;;;;;;11.15;4.57;;;;;;;25.71;100.00;101191.59;6152487;23;20029;-78
2022/08/04 07:59:07;;;;;;;9.13;3.58;;;;;;;25.72;100.00;101193.31;6132778;23;20021;-78
2022/08/04 08:01:36;;;;;;;9.38;3.50;;;;;;;25.77;100.00;101199.34;6095312;23;20029;-79
2022/08/04 08:04:07;;;;;;;10.57;3.50;;;;;;;25.82;100.00;101196.38;6103038;23;20020;-79
2022/08/04 08:06:39;;;;;;;11.20;3.30;;;;;;;25.88;100.00;101187.97;6152721;23;20064;-79
2022/08/04 08:09:15;;;;;;;8.52;3.25;;;;;;;25.96;99.73;101185.75;6150276;23;20029;-79
2022/08/04 08:11:46;;;;;;;10.07;3.20;;;;;;;26.08;99.20;101186.00;6146358;23;20028;-79
2022/08/04 08:14:35;;;;;;;7.95;2.80;;;;;;;26.20;98.94;101193.41;6133406;23;20508;-79
2022/08/04 08:17:04;;;;;;;7.85;2.72;;;;;;;26.34;99.45;101182.69;6157511;23;20021;-79
2022/08/04 08:19:34;;;;;;;11.32;3.20;;;;;;;26.44;98.19;101178.47;6121902;23;20021;-79
2022/08/04 08:22:04;;;;;;;11.65;3.08;;;;;;;26.56;98.47;101178.72;6125110;23;20024;-79
2022/08/04 08:24:36;;;;;;;11.23;3.80;;;;;;;26.66;98.15;101177.25;6148331;23;20200;-79
2022/08/04 08:27:05;;;;;;;9.00;3.00;;;;;;;26.71;96.31;101175.16;6156339;23;20022;-79
2022/08/04 08:29:34;;;;;;;8.88;2.70;;;;;;;26.78;96.29;101165.69;6137076;23;20128;-79
2022/08/04 08:32:11;;;;;;;12.40;2.35;;;;;;;26.88;96.21;101175.97;6156061;23;20021;-79
2022/08/04 08:34:41;;;;;;;10.30;3.20;;;;;;;26.90;95.04;101171.34;6152205;23;20136;-78
2022/08/04 08:37:28;;;;;;;7.22;2.70;;;;;;;26.91;95.80;101170.38;6149929;23;20022;-78
2022/08/04 08:40:29;;;;;;;7.63;2.67;;;;;;;26.92;94.51;101174.81;6120392;23;20025;-78
2022/08/04 08:43:27;;;;;;;12.32;2.85;;;;;;;26.91;93.28;101179.34;6156837;23;20049;-78
2022/08/04 08:46:34;;;;;;;10.43;2.63;;;;;;;26.96;93.02;101176.41;6112269;23;20328;-79
2022/08/04 08:49:37;;;;;;;11.43;2.22;;;;;;;26.98;92.13;101183.44;6152931;23;20021;-78
2022/08/04 08:52:43;;;;;;;5.43;2.50;;;;;;;26.99;92.46;101173.50;6145034;23;20148;-78
2022/08/04 08:56:02;;;;;;;8.27;2.72;;;;;;;26.99;93.03;101176.19;6135931;23;20482;-78
2022/08/04 08:58:53;;;;;;;9.57;3.35;;;;;;;27.01;92.27;101168.84;6121371;23;20029;-78
2022/08/04 09:01:30;;;;;;;8.10;2.78;;;;;;;27.05;92.53;101173.09;6136741;23;20025;-78
2022/08/04 09:04:17;;;;;;;7.07;2.70;;;;;;;27.13;91.47;101184.34;6150982;23;20052;-78
2022/08/04 09:07:31;;;;;;;8.02;2.97;;;;;;;27.19;91.24;101175.84;6114550;23;20029;-78
2022/08/04 09:10:02;;;;;;;7.60;2.78;;;;;;;27.21;92.03;101178.47;6150925;23;20024;-78
2022/08/04 09:12:58;;;;;;;7.50;2.85;;;;;;;27.25;91.92;101173.75;6138695;23;20347;-78
2022/08/04 09:15:43;;;;;;;7.07;2.50;;;;;;;27.32;92.85;101177.84;6082137;23;20366;-78
2022/08/04 09:18:33;;;;;;;6.55;2.70;;;;;;;27.44;92.82;101176.19;6149419;23;20029;-78
2022/08/04 09:21:15;;;;;;;5.78;2.60;;;;;;;27.52;92.57;101184.69;6156083;23;20025;-78
2022/08/04 09:24:02;;;;;;;7.50;2.42;;;;;;;27.63;92.30;101184.03;6138325;23;20326;-77
2022/08/04 09:27:04;;;;;;;7.88;3.08;;;;;;;27.68;91.44;101190.91;6147739;23;20530;-77
2022/08/04 09:29:42;;;;;;;9.15;3.38;;;;;;;27.65;91.54;101187.50;6148811;23;20021;-78
2022/08/04 09:32:40;;;;;;;9.77;3.47;;;;;;;27.63;90.19;101186.75;6140077;23;20020;-78
2022/08/04 09:35:46;;;;;;;9.13;3.03;;;;;;;27.64;90.51;101196.56;6149636;23;20017;-78
2022/08/04 09:38:34;;;;;;;7.63;3.65;;;;;;;27.66;91.11;101194.69;6147778;23;20018;-77
2022/08/04 09:41:24;;;;;;;6.40;2.92;;;;;;;27.73;91.08;101196.00;6154398;23;20033;-77
2022/08/04 09:45:01;;;;;;;11.50;4.18;;;;;;;27.79;91.34;101198.34;6146015;23;20062;-78
2022/08/04 09:47:38;;;;;;;10.40;4.60;;;;;;;27.83;90.39;101194.47;6111507;23;20602;-77
2022/08/04 09:50:20;;;;;;;8.30;3.72;;;;;;;27.84;89.88;101195.31;6147684;23;20032;-78
2022/08/04 09:53:01;;;;;;;13.23;4.88;;;;;;;27.79;89.78;101203.75;6156828;23;20026;-77
2022/08/04 09:55:40;;;;;;;8.57;4.05;;;;;;;27.70;89.50;101199.78;6124508;23;20013;-78
2022/08/04 09:58:47;;;;;;;11.00;4.50;;;;;;;27.70;90.14;101199.78;6142680;23;20151;-78
2022/08/04 10:01:19;;;;;;;6.88;5.00;;;;;;;27.65;90.08;101201.03;6153187;23;20013;-78
2022/08/04 10:03:58;;;;;;;9.85;5.53;;;;;;;27.64;89.71;101202.88;6099219;23;20017;-78
2022/08/04 10:06:33;;;;;;;10.07;4.45;;;;;;;27.69;89.55;101205.28;6116449;23;20045;-78
2022/08/04 10:09:23;;;;;;;10.52;5.32;;;;;;;27.71;89.91;101209.66;6154711;23;20033;-78
2022/08/04 10:12:11;;;;;;;10.85;5.60;;;;;;;27.65;89.57;101206.47;6156146;23;20347;-77
2022/08/04 10:15:12;;;;;;;6.70;4.47;;;;;;;27.64;89.21;101208.31;6105948;23;20021;-79
2022/08/04 10:17:53;;;;;;;11.75;4.82;;;;;;;27.71;89.03;101211.47;6139969;23;20021;-79
2022/08/04 10:20:30;;;;;;;8.05;4.10;;;;;;;27.79;89.04;101210.03;6139100;23;20518;-79
2022/08/04 10:23:26;;;;;;;11.20;3.78;;;;;;;27.86;86.94;101215.91;6150867;23;20159;-79
2022/08/04 10:26:09;;;;;;;10.93;3.83;;;;;;;27.90;85.80;101211.22;6148480;23;20014;-78
2022/08/04 10:28:52;;;;;;;12.60;3.60;;;;;;;27.94;86.00;101210.94;6140576;23;20025;-78
2022/08/04 10:31:31;;;;;;;7.13;3.17;;;;;;;27.98;84.84;101204.34;6118690;23;20608;-78
2022/08/04 10:34:16;;;;;;;4.38;3.17;;;;;;;27.94;80.66;101204.63;6104769;23;20025;-78
2022/08/04 10:36:55;;;;;;;5.07;3.20;;;;;;;27.84;81.06;101207.03;6157115;23;20024;-78
2022/08/04 10:39:31;;;;;;;8.73;2.70;;;;;;;27.76;83.75;101203.94;6154234;23;20249;-78
2022/08/04 10:42:26;;;;;;;6.20;2.83;;;;;;;27.72;84.64;101205.97;6145477;23;20543;-78
2022/08/04 10:45:22;;;;;;;9.68;2.53;;;;;;;27.72;84.66;101210.53;6123396;23;20367;-78
2022/08/04 10:48:01;;;;;;;6.60;2.72;;;;;;;27.68;84.10;101204.44;6118384;23;20028;-78
2022/08/04 10:50:30;;;;;;;6.88;3.30;;;;;;;27.75;85.21;101207.59;6133460;23;20466;-78
2022/08/04 10:53:06;;;;;;;6.05;2.47;;;;;;;27.86;85.13;101210.50;6151966;23;20029;-78
2022/08/04 10:55:51;;;;;;;7.50;2.80;;;;;;;28.00;84.95;101206.97;6146853;23;20020;-78
2022/08/04 10:58:44;;;;;;;3.53;2.28;;;;;;;28.16;83.87;101207.69;6124364;23;20040;-78
2022/08/04 11:01:29;;;;;;;5.65;3.25;;;;;;;28.29;82.62;101207.75;6140971;23;20017;-77
2022/08/04 11:04:47;;;;;;;12.25;3.05;;;;;;;28.30;82.32;101206.78;6156251;23;20022;-78
2022/08/04 11:07:16;;;;;;;8.05;2.60;;;;;;;28.30;82.93;101203.19;6149139;23;20021;-78
2022/08/04 11:09:46;;;;;;;7.88;2.47;;;;;;;28.30;82.04;101209.50;6108333;23;20025;-77
2022/08/04 11:12:25;;;;;;;4.43;2.03;;;;;;;28.26;80.74;101207.09;6146267;23;20143;-76
2022/08/04 11:15:12;;;;;;;7.10;2.63;;;;;;;28.24;79.45;101212.59;6140968;23;20020;-78
2022/08/04 11:17:49;;;;;;;3.83;2.00;;;;;;;28.22;79.88;101222.66;6155851;23;20017;-76
2022/08/04 11:20:51;;;;;;;3.78;2.40;;;;;;;28.17;80.01;101222.13;6129964;23;20052;-76
2022/08/04 11:23:27;;;;;;;4.75;2.10;;;;;;;28.12;80.56;101224.25;6139501;23;20485;-76
2022/08/04 11:26:12;;;;;;;15.73;4.20;;;;;;;28.13;80.48;101226.00;6138973;23;20466;-77
2022/08/04 11:28:57;;;;;;;4.28;2.72;;;;;;;28.13;80.99;101236.84;6130739;23;20344;-77
2022/08/04 11:31:35;;;;;;;14.27;2.50;;;;;;;28.19;81.03;101236.44;6144618;23;20025;-77
2022/08/04 11:34:20;;;;;;;4.13;2.40;;;;;;;28.23;81.91;101237.09;6153163;23;20041;-77
2022/08/04 11:37:07;;;;;;;5.53;2.63;;;;;;;28.18;83.14;101240.09;6135073;23;20036;-77
2022/08/04 11:39:44;;;;;;;5.80;2.00;;;;;;;28.10;84.94;101248.72;6146317;23;20020;-76
2022/08/04 11:42:29;;;;;;;10.07;2.35;;;;;;;28.04;83.66;101248.25;6148579;23;20664;-79
2022/08/04 11:45:01;;;;;;;2.45;1.20;;;;;;;27.90;82.82;101250.00;6144422;23;20021;-77
2022/08/04 11:48:02;;;;;;;4.30;1.65;;;;;;;27.74;81.81;101251.91;6149544;23;20021;-77
2022/08/04 11:50:37;;;;;;;3.33;1.08;;;;;;;27.63;81.97;101246.28;6156965;23;20021;-77
2022/08/04 11:53:09;;;;;;;4.07;1.45;;;;;;;27.57;82.72;101242.13;6130119;23;20021;-77
2022/08/04 11:55:39;;;;;;;4.95;1.50;;;;;;;27.52;83.07;101239.69;6155687;23;20026;-76
2022/08/04 11:58:29;;;;;;;4.13;1.20;;;;;;;27.48;82.88;101253.53;6120295;23;20049;-77
2022/08/04 12:01:09;;;;;;;1.33;1.25;;;;;;;27.40;83.61;101265.69;6151914;23;20021;-77
2022/08/04 12:04:10;;;;;;;;;;;;;;;27.31;83.83;101277.06;6156976;23;20451;-77
2022/08/04 12:07:04;;;;;;;1.92;1.10;;;;;;;27.27;82.84;101272.81;6138584;23;19939;-78
2022/08/04 12:10:25;;;;;;;2.63;1.23;;;;;;;27.25;82.90;101285.56;6123389;23;20049;-77
2022/08/04 12:13:39;;;;;;;2.90;1.27;;;;;;;27.20;84.03;101284.91;6111372;23;20056;-77
2022/08/04 12:16:09;;;;;;;4.53;1.30;;;;;;;27.13;84.12;101287.13;6126855;23;20033;-77
2022/08/04 12:18:40;;;;;;;5.47;1.17;;;;;;;27.07;84.20;101292.03;6115536;23;20474;-77
2022/08/04 12:21:41;;;;;;;3.10;1.20;;;;;;;27.00;82.31;101297.78;6151492;23;20027;-77
2022/08/04 12:24:21;;;;;;;4.38;1.40;;;;;;;26.86;83.39;101308.53;6117335;23;20124;-78